createdAt,value
2024-01-11T00:01:52.519Z,-5.44
2024-01-11T00:04:55.427Z,-5.43
2024-01-11T00:07:58.032Z,-5.41
2024-01-11T00:11:01.050Z,-5.41
2024-01-11T00:14:03.514Z,-5.42
2024-01-11T00:17:06.401Z,-5.40
2024-01-11T00:20:09.042Z,-5.45
2024-01-11T00:23:12.122Z,-5.50
2024-01-11T00:26:14.613Z,-5.51
2024-01-11T00:29:17.310Z,-5.53
2024-01-11T00:32:21.458Z,-5.59
2024-01-11T00:35:24.481Z,-5.62
2024-01-11T00:38:27.096Z,-5.66
2024-01-11T00:41:30.022Z,-5.68
2024-01-11T00:44:32.765Z,-5.69
2024-01-11T00:47:35.753Z,-5.75
2024-01-11T00:50:38.179Z,-5.77
2024-01-11T00:53:41.203Z,-5.80
2024-01-11T00:56:43.853Z,-5.81
2024-01-11T00:59:46.556Z,-5.64
2024-01-11T01:02:49.151Z,-5.60
2024-01-11T01:05:52.287Z,-5.58
2024-01-11T01:08:55.581Z,-5.64
2024-01-11T01:11:59.806Z,-5.67
2024-01-11T01:15:02.450Z,-5.65
2024-01-11T01:18:06.101Z,-5.69
2024-01-11T01:21:08.983Z,-5.76
2024-01-11T01:24:11.876Z,-5.77
2024-01-11T01:27:14.690Z,-5.71
2024-01-11T01:30:17.452Z,-5.71
2024-01-11T01:33:20.057Z,-5.61
2024-01-11T01:36:23.102Z,-5.60
2024-01-11T01:39:25.425Z,-5.50
2024-01-11T01:42:27.982Z,-5.55
2024-01-11T01:45:30.622Z,-5.53
2024-01-11T01:48:33.785Z,-5.63
2024-01-11T01:51:36.524Z,-5.72
2024-01-11T01:54:39.170Z,-5.80
2024-01-11T01:57:43.240Z,-5.78
2024-01-11T02:00:47.124Z,-5.83
2024-01-11T02:03:53.542Z,-5.85
2024-01-11T02:06:58.538Z,-5.86
2024-01-11T02:10:01.532Z,-5.89
2024-01-11T02:13:07.096Z,-5.90
2024-01-11T02:16:11.898Z,-5.86
2024-01-11T02:19:15.083Z,-5.82
2024-01-11T02:22:23.085Z,-5.73
2024-01-11T02:25:25.936Z,-5.65
2024-01-11T02:28:28.199Z,-5.58
2024-01-11T02:31:31.653Z,-5.51
2024-01-11T02:34:34.553Z,-5.39
2024-01-11T02:37:38.367Z,-5.49
2024-01-11T02:40:41.307Z,-5.64
2024-01-11T02:43:47.771Z,-5.70
2024-01-11T02:46:50.331Z,-5.75
2024-01-11T02:49:53.223Z,-5.79
2024-01-11T02:52:55.916Z,-5.89
2024-01-11T02:56:00.318Z,-5.92
2024-01-11T02:59:04.292Z,-6.00
2024-01-11T03:02:07.348Z,-6.04
2024-01-11T03:05:10.219Z,-6.07
2024-01-11T03:08:13.174Z,-6.11
2024-01-11T03:11:15.688Z,-6.15
2024-01-11T03:14:18.583Z,-6.16
2024-01-11T03:17:21.233Z,-6.20
2024-01-11T03:20:26.001Z,-6.21
2024-01-11T03:23:28.799Z,-6.25
2024-01-11T03:26:31.682Z,-6.26
2024-01-11T03:29:34.985Z,-6.24
2024-01-11T03:32:38.134Z,-6.29
2024-01-11T03:35:41.612Z,-6.21
2024-01-11T03:38:44.614Z,-6.25
2024-01-11T03:41:47.234Z,-6.27
2024-01-11T03:44:50.075Z,-6.24
2024-01-11T03:47:53.150Z,-6.26
2024-01-11T03:50:56.194Z,-6.32
2024-01-11T03:53:58.836Z,-6.31
2024-01-11T03:57:02.899Z,-6.32
2024-01-11T04:00:10.773Z,-6.30
2024-01-11T04:03:14.780Z,-6.36
2024-01-11T04:06:22.633Z,-6.33
2024-01-11T04:09:25.748Z,-6.39
2024-01-11T04:12:28.330Z,-6.41
2024-01-11T04:15:30.922Z,-6.50
2024-01-11T04:18:33.737Z,-6.50
2024-01-11T04:21:38.435Z,-6.48
2024-01-11T04:24:42.908Z,-6.48
2024-01-11T04:27:45.759Z,-6.50
2024-01-11T04:30:48.379Z,-6.46
2024-01-11T04:33:51.327Z,-6.50
2024-01-11T04:36:53.906Z,-6.53
2024-01-11T04:40:00.988Z,-6.54
2024-01-11T04:43:03.536Z,-6.58
2024-01-11T04:46:19.207Z,-6.60
2024-01-11T04:49:21.855Z,-6.63
2024-01-11T04:52:24.843Z,-6.64
2024-01-11T04:55:27.215Z,-6.61
2024-01-11T04:58:30.378Z,-6.62
2024-01-11T05:01:32.912Z,-6.60
2024-01-11T05:04:35.767Z,-6.57
2024-01-11T05:07:38.227Z,-6.57
2024-01-11T05:10:41.067Z,-6.55
2024-01-11T05:13:43.455Z,-6.56
2024-01-11T05:16:46.241Z,-6.56
2024-01-11T05:19:48.812Z,-6.55
2024-01-11T05:22:51.595Z,-6.58
2024-01-11T05:25:53.997Z,-6.58
2024-01-11T05:28:56.932Z,-6.61
2024-01-11T05:31:59.478Z,-6.62
2024-01-11T05:35:02.454Z,-6.54
2024-01-11T05:38:05.568Z,-6.44
2024-01-11T05:41:09.088Z,-6.44
2024-01-11T05:44:11.615Z,-6.46
2024-01-11T05:47:14.455Z,-6.50
2024-01-11T05:50:17.023Z,-6.52
2024-01-11T05:53:22.050Z,-6.47
2024-01-11T05:56:24.637Z,-6.44
2024-01-11T05:59:27.799Z,-6.45
2024-01-11T06:02:32.694Z,-6.47
2024-01-11T06:05:35.589Z,-6.46
2024-01-11T06:08:38.278Z,-6.48
2024-01-11T06:11:41.307Z,-6.52
2024-01-11T06:14:43.973Z,-6.53
2024-01-11T06:17:47.053Z,-6.53
2024-01-11T06:20:49.724Z,-6.51
2024-01-11T06:23:52.725Z,-6.49
2024-01-11T06:26:55.406Z,-6.46
2024-01-11T06:29:58.164Z,-6.47
2024-01-11T06:33:00.924Z,-6.46
2024-01-11T06:36:05.880Z,-6.42
2024-01-11T06:39:09.768Z,-6.37
2024-01-11T06:42:12.709Z,-6.34
2024-01-11T06:45:15.386Z,-6.18
2024-01-11T06:48:18.401Z,-6.14
2024-01-11T06:51:24.479Z,-6.03
2024-01-11T06:54:27.326Z,-5.95
2024-01-11T06:57:29.924Z,-5.91
2024-01-11T07:00:32.838Z,-5.78
2024-01-11T07:03:35.460Z,-5.74
2024-01-11T07:06:38.313Z,-5.64
2024-01-11T07:09:40.790Z,-5.58
2024-01-11T07:12:44.087Z,-5.49
2024-01-11T07:15:46.985Z,-5.30
2024-01-11T07:18:49.915Z,-5.04
2024-01-11T07:21:52.647Z,-4.87
2024-01-11T07:24:55.164Z,-4.59
2024-01-11T07:27:57.705Z,-4.32
2024-01-11T07:31:00.430Z,-3.89
2024-01-11T07:34:03.142Z,-3.73
2024-01-11T07:37:05.824Z,-3.43
2024-01-11T07:40:11.967Z,-3.29
2024-01-11T07:43:15.226Z,-3.15
2024-01-11T07:46:18.129Z,-2.95
2024-01-11T07:49:21.755Z,-2.74
2024-01-11T07:52:24.184Z,-2.36
2024-01-11T07:55:27.702Z,-1.84
2024-01-11T07:58:30.249Z,-1.74
2024-01-11T08:01:33.052Z,-1.08
2024-01-11T08:04:35.653Z,-0.60
2024-01-11T08:07:38.011Z,-0.05
2024-01-11T08:10:40.696Z,0.85
2024-01-11T08:13:43.008Z,0.93
2024-01-11T08:16:45.969Z,1.39
2024-01-11T08:19:48.417Z,1.74
2024-01-11T08:22:50.940Z,0.15
2024-01-11T08:25:56.245Z,-0.73
2024-01-11T08:28:59.315Z,-0.93
2024-01-11T08:32:15.286Z,-0.95
2024-01-11T08:35:27.366Z,-0.96
2024-01-11T08:38:30.447Z,-0.96
2024-01-11T08:41:33.450Z,-0.86
2024-01-11T08:44:36.124Z,-0.79
2024-01-11T08:47:39.853Z,-0.73
2024-01-11T08:50:42.719Z,-0.62
2024-01-11T08:53:45.645Z,-0.52
2024-01-11T08:56:48.786Z,-0.36
2024-01-11T08:59:51.461Z,-0.22
2024-01-11T09:02:54.028Z,-0.16
2024-01-11T09:05:58.355Z,-0.32
2024-01-11T09:09:00.759Z,-0.30
2024-01-11T09:12:03.893Z,-0.33
2024-01-11T09:15:06.754Z,-0.22
2024-01-11T09:18:09.910Z,-0.20
2024-01-11T09:21:12.378Z,-0.11
2024-01-11T09:24:15.209Z,0.00
2024-01-11T09:27:17.774Z,0.05
2024-01-11T09:30:20.689Z,0.00
2024-01-11T09:33:23.374Z,0.02
2024-01-11T09:36:26.368Z,-0.02
2024-01-11T09:39:29.516Z,0.12
2024-01-11T09:42:32.910Z,0.16
2024-01-11T09:45:35.668Z,0.25
2024-01-11T09:48:41.995Z,0.40
2024-01-11T09:51:47.207Z,0.55
2024-01-11T09:54:50.201Z,0.65
2024-01-11T09:57:54.878Z,0.71
2024-01-11T10:01:00.475Z,0.86
2024-01-11T10:04:04.330Z,0.95
2024-01-11T10:07:09.891Z,0.94
2024-01-11T10:10:16.411Z,0.98
2024-01-11T10:13:18.732Z,0.99
2024-01-11T10:16:22.553Z,1.03
2024-01-11T10:19:25.924Z,1.14
2024-01-11T10:22:28.716Z,1.34
2024-01-11T10:25:31.494Z,1.46
2024-01-11T10:28:38.822Z,1.57
2024-01-11T10:31:41.647Z,1.55
2024-01-11T10:34:44.351Z,1.54
2024-01-11T10:37:50.171Z,1.57
2024-01-11T10:40:54.312Z,1.67
2024-01-11T10:43:59.094Z,1.74
2024-01-11T10:47:03.527Z,1.83
2024-01-11T10:50:08.731Z,1.79
2024-01-11T10:53:37.904Z,1.89
2024-01-11T10:56:42.158Z,1.93
2024-01-11T10:59:45.499Z,1.90
2024-01-11T11:02:48.034Z,1.89
2024-01-11T11:05:52.664Z,1.92
2024-01-11T11:08:56.114Z,2.20
2024-01-11T11:11:59.619Z,2.17
2024-01-11T11:15:02.829Z,2.20
2024-01-11T11:18:06.738Z,2.15
2024-01-11T11:21:11.492Z,2.13
2024-01-11T11:24:14.132Z,2.12
2024-01-11T11:27:17.305Z,1.94
2024-01-11T11:30:21.213Z,1.88
2024-01-11T11:33:27.229Z,1.96
2024-01-11T11:36:30.148Z,1.96
2024-01-11T11:39:32.996Z,1.78
2024-01-11T11:42:36.379Z,1.75
2024-01-11T11:45:39.145Z,1.83
2024-01-11T11:48:42.095Z,1.88
2024-01-11T11:51:44.892Z,1.86
2024-01-11T11:54:47.683Z,1.72
2024-01-11T11:57:50.004Z,1.70
2024-01-11T12:00:53.512Z,1.73
2024-01-11T12:03:56.244Z,1.73
2024-01-11T12:06:58.915Z,1.50
2024-01-11T12:10:02.070Z,1.54
2024-01-11T12:13:05.462Z,1.54
2024-01-11T12:16:08.366Z,1.59
2024-01-11T12:19:11.030Z,1.59
2024-01-11T12:22:13.786Z,1.54
2024-01-11T12:25:16.141Z,1.57
2024-01-11T12:28:18.951Z,1.60
2024-01-11T12:31:22.245Z,1.67
2024-01-11T12:34:25.456Z,1.72
2024-01-11T12:37:31.176Z,1.90
2024-01-11T12:40:35.888Z,2.07
2024-01-11T12:43:38.395Z,2.00
2024-01-11T12:46:40.942Z,1.71
2024-01-11T12:49:47.306Z,1.72
2024-01-11T12:53:09.802Z,1.73
2024-01-11T12:56:15.175Z,1.63
2024-01-11T12:59:18.051Z,1.52
2024-01-11T13:02:21.094Z,1.29
2024-01-11T13:05:24.417Z,1.18
2024-01-11T13:08:28.438Z,1.29
2024-01-11T13:11:31.649Z,1.37
2024-01-11T13:14:34.046Z,1.56
2024-01-11T13:17:36.974Z,1.70
2024-01-11T13:20:39.676Z,1.93
2024-01-11T13:23:42.727Z,1.96
2024-01-11T13:26:46.204Z,2.00
2024-01-11T13:29:48.995Z,2.13
2024-01-11T13:32:52.396Z,2.17
2024-01-11T13:35:55.489Z,1.94
2024-01-11T13:38:58.262Z,1.85
2024-01-11T13:42:00.856Z,1.80
2024-01-11T13:45:04.294Z,1.76
2024-01-11T13:48:07.621Z,1.66
2024-01-11T13:51:14.172Z,1.60
2024-01-11T13:54:16.894Z,1.66
2024-01-11T13:57:19.408Z,1.59
2024-01-11T14:00:22.345Z,1.58
2024-01-11T14:03:28.585Z,1.62
2024-01-11T14:06:31.333Z,1.60
2024-01-11T14:09:34.256Z,1.65
2024-01-11T14:12:37.272Z,1.63
2024-01-11T14:15:41.242Z,1.62
2024-01-11T14:18:43.724Z,1.64
2024-01-11T14:21:46.579Z,1.54
2024-01-11T14:24:49.085Z,1.53
2024-01-11T14:27:51.989Z,1.59
2024-01-11T14:30:54.598Z,1.60
2024-01-11T14:33:57.729Z,1.65
2024-01-11T14:37:00.155Z,1.74
2024-01-11T14:40:03.566Z,1.69
2024-01-11T14:43:06.270Z,1.61
2024-01-11T14:46:11.847Z,1.44
2024-01-11T14:49:14.268Z,1.27
2024-01-11T14:52:18.468Z,1.05
2024-01-11T14:55:21.251Z,0.99
2024-01-11T14:58:24.158Z,0.94
2024-01-11T15:01:26.607Z,0.88
2024-01-11T15:04:29.430Z,0.85
2024-01-11T15:07:31.974Z,0.78
2024-01-11T15:10:34.619Z,0.71
2024-01-11T15:13:37.288Z,0.67
2024-01-11T15:16:40.520Z,0.58
2024-01-11T15:19:45.525Z,0.55
2024-01-11T15:22:48.484Z,0.63
2024-01-11T15:25:50.919Z,0.56
2024-01-11T15:28:53.885Z,0.54
2024-01-11T15:31:56.296Z,0.51
2024-01-11T15:34:59.615Z,0.51
2024-01-11T15:38:02.311Z,0.52
2024-01-11T15:41:06.147Z,0.61
2024-01-11T15:44:09.172Z,0.66
2024-01-11T15:47:12.266Z,0.76
2024-01-11T15:50:15.049Z,0.78
2024-01-11T15:53:17.946Z,0.73
2024-01-11T15:56:20.682Z,0.71
2024-01-11T15:59:25.529Z,0.65
2024-01-11T16:02:29.942Z,0.54
2024-01-11T16:05:32.632Z,0.44
2024-01-11T16:08:35.272Z,0.37
2024-01-11T16:11:38.233Z,0.26
2024-01-11T16:14:44.129Z,0.21
2024-01-11T16:17:47.203Z,0.12
2024-01-11T16:20:52.052Z,0.11
2024-01-11T16:23:55.083Z,0.04
2024-01-11T16:26:57.724Z,0.00
2024-01-11T16:30:03.267Z,-0.10
2024-01-11T16:33:07.384Z,-0.18
2024-01-11T16:36:11.071Z,-0.25
2024-01-11T16:39:13.698Z,-0.35
2024-01-11T16:42:17.053Z,-0.41
2024-01-11T16:45:19.728Z,-0.46
2024-01-11T16:48:22.689Z,-0.51
2024-01-11T16:51:25.258Z,-0.49
2024-01-11T16:54:28.071Z,-0.54
2024-01-11T16:57:30.685Z,-0.58
2024-01-11T17:00:33.593Z,-0.64
2024-01-11T17:03:35.909Z,-0.64
2024-01-11T17:06:38.889Z,-0.65
2024-01-11T17:09:41.339Z,-0.66
2024-01-11T17:12:44.315Z,-0.64
2024-01-11T17:15:46.881Z,-0.60
2024-01-11T17:18:50.206Z,-0.62
2024-01-11T17:21:52.909Z,-0.65
2024-01-11T17:24:55.821Z,-0.67
2024-01-11T17:27:58.920Z,-0.73
2024-01-11T17:31:02.527Z,-0.75
2024-01-11T17:34:05.276Z,-0.75
2024-01-11T17:37:08.163Z,-0.74
2024-01-11T17:40:11.008Z,-0.69
2024-01-11T17:43:14.251Z,-0.68
2024-01-11T17:46:21.621Z,-0.68
2024-01-11T17:49:24.396Z,-0.65
2024-01-11T17:52:29.296Z,-0.66
2024-01-11T17:55:31.854Z,-0.64
2024-01-11T17:58:34.343Z,-0.63
2024-01-11T18:01:37.572Z,-0.59
2024-01-11T18:04:42.222Z,-0.59
2024-01-11T18:07:44.673Z,-0.58
2024-01-11T18:10:47.662Z,-0.56
2024-01-11T18:13:50.334Z,-0.55
2024-01-11T18:16:53.322Z,-0.49
2024-01-11T18:19:55.981Z,-0.47
2024-01-11T18:22:59.181Z,-0.46
2024-01-11T18:26:01.657Z,-0.41
2024-01-11T18:29:04.493Z,-0.44
2024-01-11T18:32:06.890Z,-0.41
2024-01-11T18:35:10.610Z,-0.36
2024-01-11T18:38:13.925Z,-0.38
2024-01-11T18:41:18.155Z,-0.39
2024-01-11T18:44:21.610Z,-0.40
2024-01-11T18:47:25.324Z,-0.41
2024-01-11T18:50:29.115Z,-0.43
2024-01-11T18:53:31.836Z,-0.47
2024-01-11T18:56:34.271Z,-0.45
2024-01-11T18:59:36.962Z,-0.49
2024-01-11T19:02:39.291Z,-0.52
2024-01-11T19:05:42.385Z,-0.53
2024-01-11T19:08:45.011Z,-0.51
2024-01-11T19:11:51.534Z,-0.48
2024-01-11T19:14:54.288Z,-0.49
2024-01-11T19:17:57.889Z,-0.48
2024-01-11T19:21:00.370Z,-0.47
2024-01-11T19:24:03.435Z,-0.47
2024-01-11T19:27:06.257Z,-0.44
2024-01-11T19:30:09.700Z,-0.47
2024-01-11T19:33:16.001Z,-0.46
2024-01-11T19:36:18.933Z,-0.46
2024-01-11T19:39:21.499Z,-0.42
2024-01-11T19:42:24.560Z,-0.41
2024-01-11T19:45:27.200Z,-0.44
2024-01-11T19:48:30.265Z,-0.39
2024-01-11T19:51:33.186Z,-0.38
2024-01-11T19:54:36.034Z,-0.33
2024-01-11T19:57:38.407Z,-0.34
2024-01-11T20:00:42.488Z,-0.33
2024-01-11T20:03:45.441Z,-0.34
2024-01-11T20:06:47.885Z,-0.31
2024-01-11T20:09:50.934Z,-0.29
2024-01-11T20:12:53.620Z,-0.26
2024-01-11T20:15:56.490Z,-0.23
2024-01-11T20:18:59.116Z,-0.20
2024-01-11T20:22:02.396Z,-0.16
2024-01-11T20:25:05.058Z,-0.16
2024-01-11T20:28:07.730Z,-0.09
2024-01-11T20:31:10.581Z,-0.08
2024-01-11T20:34:15.136Z,-0.07
2024-01-11T20:37:18.450Z,-0.03
2024-01-11T20:40:21.234Z,-0.02
2024-01-11T20:43:23.552Z,0.00
2024-01-11T20:46:26.194Z,-0.02
2024-01-11T20:49:28.894Z,-0.03
2024-01-11T20:52:33.342Z,-0.02
2024-01-11T20:55:35.922Z,-0.03
2024-01-11T20:58:38.806Z,0.00
2024-01-11T21:01:41.420Z,0.02
2024-01-11T21:04:44.338Z,0.05
2024-01-11T21:07:46.768Z,0.09
2024-01-11T21:10:49.782Z,0.09
2024-01-11T21:13:52.764Z,0.14
2024-01-11T21:16:55.489Z,0.07
2024-01-11T21:19:57.994Z,0.03
2024-01-11T21:23:02.270Z,0.04
2024-01-11T21:26:04.714Z,0.04
2024-01-11T21:29:07.345Z,0.05
2024-01-11T21:32:09.992Z,0.10
2024-01-11T21:35:13.018Z,0.00
2024-01-11T21:38:15.733Z,-0.04
2024-01-11T21:41:18.724Z,-0.10
2024-01-11T21:44:21.275Z,-0.08
2024-01-11T21:47:24.284Z,-0.04
2024-01-11T21:50:26.932Z,-0.03
2024-01-11T21:53:31.429Z,-0.04
2024-01-11T21:56:34.554Z,0.03
2024-01-11T21:59:37.241Z,0.03
2024-01-11T22:02:39.824Z,0.04
2024-01-11T22:05:42.695Z,-0.01
2024-01-11T22:08:45.127Z,-0.03
2024-01-11T22:11:47.866Z,-0.03
2024-01-11T22:14:50.527Z,-0.16
2024-01-11T22:17:53.560Z,-0.28
2024-01-11T22:20:56.332Z,-0.41
2024-01-11T22:23:59.445Z,-0.45
2024-01-11T22:27:02.013Z,-0.51
2024-01-11T22:30:05.966Z,-0.54
2024-01-11T22:33:10.738Z,-0.58
2024-01-11T22:36:15.562Z,-0.65
2024-01-11T22:39:18.325Z,-0.65
2024-01-11T22:42:21.300Z,-0.72
2024-01-11T22:45:23.954Z,-0.77
2024-01-11T22:48:26.702Z,-0.83
2024-01-11T22:51:29.414Z,-0.83
2024-01-11T22:54:32.393Z,-0.89
2024-01-11T22:57:34.975Z,-0.88
2024-01-11T23:00:39.215Z,-0.95
2024-01-11T23:03:41.905Z,-1.00
2024-01-11T23:06:44.867Z,-1.03
2024-01-11T23:09:47.562Z,-1.01
2024-01-11T23:12:50.395Z,-0.99
2024-01-11T23:15:52.988Z,-1.00
2024-01-11T23:18:55.907Z,-1.09
2024-01-11T23:21:58.213Z,-1.12
2024-01-11T23:25:01.174Z,-1.14
2024-01-11T23:28:04.364Z,-1.23
2024-01-11T23:31:07.771Z,-1.31
2024-01-11T23:34:10.404Z,-1.44
2024-01-11T23:37:13.395Z,-1.40
2024-01-11T23:40:15.982Z,-1.30
2024-01-11T23:43:19.256Z,-1.37
2024-01-11T23:46:21.776Z,-1.34
2024-01-11T23:49:24.650Z,-1.43
2024-01-11T23:52:27.144Z,-1.46
2024-01-11T23:55:30.029Z,-1.47
2024-01-11T23:58:32.584Z,-1.48
